Time;durP1;ratioP1;P1;durP2;ratioP2;P2;SDS_P1;SDS_P2;PMS_P1;PMS_P2;Temp;Humidity;BMP_temperature;BMP_pressure;BME280_temperature;BME280_humidity;BME280_pressure;Samples;Min_cycle;Max_cycle;Signal;HPM_P1;HPM_P2
2022/08/19 00:01:11;;;;;;;;;;;;;;;18.81;76.20;95043.41;5135722;27;1053;-49
2022/08/19 00:03:37;;;;;;;;;;;;;;;18.78;75.72;95048.38;5135535;27;1028;-49
2022/08/19 00:06:03;;;;;;;;;;;;;;;18.66;75.14;95032.78;5117255;27;1071;-49
2022/08/19 00:08:29;;;;;;;;;;;;;;;18.49;76.26;95040.56;5135443;27;1052;-49
2022/08/19 00:10:55;;;;;;;;;;;;;;;18.54;75.51;95032.63;5135551;27;985;-49
2022/08/19 00:13:21;;;;;;;;;;;;;;;18.60;76.31;95025.53;5134781;27;1040;-49
2022/08/19 00:15:47;;;;;;;;;;;;;;;18.55;76.71;95019.91;5135189;27;1060;-50
2022/08/19 00:18:13;;;;;;;;;;;;;;;18.57;76.78;95022.41;5135300;27;1913;-49
2022/08/19 00:20:40;;;;;;;;;;;;;;;18.58;77.49;95037.63;5135084;27;1087;-49
2022/08/19 00:23:06;;;;;;;;;;;;;;;18.71;77.73;95043.00;5135118;27;957;-50
2022/08/19 00:25:33;;;;;;;;;;;;;;;18.76;77.14;95040.47;5135226;27;1000;-50
2022/08/19 00:27:59;;;;;;;;;;;;;;;18.64;77.12;95048.44;5135319;27;1019;-50
2022/08/19 00:30:27;;;;;;;;;;;;;;;18.63;77.02;95044.06;5134997;27;1036;-50
2022/08/19 00:32:55;;;;;;;;;;;;;;;18.53;77.51;95047.22;5135104;27;983;-50
2022/08/19 00:35:21;;;;;;;;;;;;;;;18.39;78.03;95044.78;5134786;27;956;-49
2022/08/19 00:37:47;;;;;;;;;;;;;;;18.44;77.68;95047.66;5134870;27;1913;-49
2022/08/19 00:40:14;;;;;;;;;;;;;;;18.14;77.93;95038.16;5134909;27;1039;-49
2022/08/19 00:42:40;;;;;;;;;;;;;;;18.14;77.94;95040.84;5135069;27;1056;-49
2022/08/19 00:45:12;;;;;;;;;;;;;;;18.25;77.27;95033.97;5151192;27;1157;-49
2022/08/19 00:47:39;;;;;;;;;;;;;;;18.30;77.86;95028.75;5155882;27;1212;-50
2022/08/19 00:50:07;;;;;;;;;;;;;;;18.25;77.89;95022.31;5155242;27;1007;-50
2022/08/19 00:52:36;;;;;;;;;;;;;;;18.13;78.33;95028.34;5155193;27;1095;-50
2022/08/19 00:55:05;;;;;;;;;;;;;;;18.24;77.42;95024.19;5155639;27;1027;-50
2022/08/19 00:57:37;;;;;;;;;;;;;;;18.22;78.26;95022.75;5155405;27;1989;-50
2022/08/19 01:00:05;;;;;;;;;;;;;;;18.11;78.23;95025.03;5155152;27;1004;-49
2022/08/19 01:02:32;;;;;;;;;;;;;;;18.21;77.49;95018.38;5155320;27;960;-49
2022/08/19 01:05:00;;;;;;;;;;;;;;;18.24;77.76;95026.06;5154988;27;1091;-49
2022/08/19 01:07:26;;;;;;;;;;;;;;;18.08;78.68;95033.59;5155108;27;1043;-50
2022/08/19 01:09:52;;;;;;;;;;;;;;;18.02;78.85;95034.44;5154922;27;1075;-49
2022/08/19 01:12:18;;;;;;;;;;;;;;;17.98;78.54;95033.19;5155194;27;1059;-49
2022/08/19 01:14:45;;;;;;;;;;;;;;;17.90;79.28;95030.69;5155023;27;1015;-49
2022/08/19 01:17:11;;;;;;;;;;;;;;;18.13;77.46;95028.34;5155037;27;1023;-49
2022/08/19 01:19:40;;;;;;;;;;;;;;;18.11;78.53;95035.84;5154732;27;1983;-49
2022/08/19 01:22:16;;;;;;;;;;;;;;;18.03;78.80;95038.78;5155069;27;1027;-49
2022/08/19 01:24:42;;;;;;;;;;;;;;;18.01;79.36;95040.88;5155041;27;1059;-49
2022/08/19 01:27:09;;;;;;;;;;;;;;;17.86;79.63;95048.38;5154926;27;969;-49
2022/08/19 01:29:36;;;;;;;;;;;;;;;17.79;79.94;95042.94;5154939;27;968;-49
2022/08/19 01:32:03;;;;;;;;;;;;;;;17.82;79.20;95045.22;5155074;27;1032;-49
2022/08/19 01:34:28;;;;;;;;;;;;;;;17.98;78.58;95038.59;5154841;27;1881;-49
2022/08/19 01:36:54;;;;;;;;;;;;;;;17.99;78.48;95040.25;5154832;27;980;-49
2022/08/19 01:39:22;;;;;;;;;;;;;;;17.97;78.68;95039.63;5154834;27;1913;-49
2022/08/19 01:41:48;;;;;;;;;;;;;;;17.89;79.31;95039.84;5154745;27;961;-49
2022/08/19 01:44:15;;;;;;;;;;;;;;;17.67;79.66;95036.50;5145738;27;1156;-49
2022/08/19 01:46:43;;;;;;;;;;;;;;;17.51;80.83;95041.28;5133839;28;1012;-49
2022/08/19 01:49:09;;;;;;;;;;;;;;;17.35;81.33;95044.38;5134149;28;965;-49
2022/08/19 01:51:36;;;;;;;;;;;;;;;17.30;81.91;95038.75;5134007;28;1007;-49
2022/08/19 01:54:02;;;;;;;;;;;;;;;17.49;81.74;95045.22;5133878;28;1823;-49
2022/08/19 01:56:28;;;;;;;;;;;;;;;17.54;81.26;95043.56;5133956;28;976;-49
2022/08/19 01:59:02;;;;;;;;;;;;;;;17.56;81.00;95040.66;5133929;28;1897;-48
2022/08/19 02:01:31;;;;;;;;;;;;;;;17.60;81.52;95041.06;5133766;28;965;-50
2022/08/19 02:03:58;;;;;;;;;;;;;;;17.47;81.21;95047.28;5134085;28;1112;-50
2022/08/19 02:06:24;;;;;;;;;;;;;;;17.33;81.76;95047.28;5133588;28;1012;-49
2022/08/19 02:08:50;;;;;;;;;;;;;;;17.32;82.21;95044.78;5133985;28;981;-49
2022/08/19 02:11:26;;;;;;;;;;;;;;;17.37;81.70;95045.81;5133607;28;1047;-49
2022/08/19 02:13:53;;;;;;;;;;;;;;;17.23;81.97;95037.94;5134268;28;1060;-49
2022/08/19 02:16:19;;;;;;;;;;;;;;;17.17;82.19;95039.56;5133737;28;1048;-50
2022/08/19 02:18:48;;;;;;;;;;;;;;;17.32;82.38;95039.38;5133898;28;1910;-49
2022/08/19 02:21:17;;;;;;;;;;;;;;;17.34;82.00;95040.84;5133503;28;1978;-49
2022/08/19 02:23:44;;;;;;;;;;;;;;;17.43;81.45;95038.75;5133803;28;1021;-49
2022/08/19 02:26:10;;;;;;;;;;;;;;;17.53;81.02;95041.09;5133426;28;1059;-50
2022/08/19 02:28:36;;;;;;;;;;;;;;;17.33;81.62;95036.47;5133577;28;1031;-50
2022/08/19 02:31:02;;;;;;;;;;;;;;;17.20;81.75;95031.03;5133650;28;995;-50
2022/08/19 02:33:28;;;;;;;;;;;;;;;17.16;82.14;95033.31;5133581;28;1016;-49
2022/08/19 02:35:54;;;;;;;;;;;;;;;17.38;80.88;95038.56;5134150;27;1980;-50
2022/08/19 02:38:26;;;;;;;;;;;;;;;17.36;81.68;95027.97;5137146;27;1905;-49
2022/08/19 02:41:03;;;;;;;;;;;;;;;17.41;81.76;95031.91;5137300;27;973;-49
2022/08/19 02:43:30;;;;;;;;;;;;;;;17.54;80.77;95030.03;5139731;27;1216;-49
2022/08/19 02:45:56;;;;;;;;;;;;;;;17.42;81.18;95039.00;5158273;27;1040;-50
2022/08/19 02:48:23;;;;;;;;;;;;;;;17.18;81.89;95044.75;5157752;27;1020;-49
2022/08/19 02:50:54;;;;;;;;;;;;;;;17.31;81.61;95046.66;5157830;27;1064;-50
2022/08/19 02:53:22;;;;;;;;;;;;;;;17.11;82.15;95043.06;5157480;27;1091;-50
2022/08/19 02:55:48;;;;;;;;;;;;;;;16.89;83.26;95035.13;5157643;27;1040;-50
2022/08/19 02:58:15;;;;;;;;;;;;;;;17.00;83.43;95038.25;5157256;27;1910;-49
2022/08/19 03:00:45;;;;;;;;;;;;;;;16.94;83.48;95046.16;5157824;27;1060;-49
2022/08/19 03:03:11;;;;;;;;;;;;;;;17.06;83.12;95045.56;5157422;27;1055;-49
2022/08/19 03:05:38;;;;;;;;;;;;;;;17.02;83.05;95049.72;5157614;27;1050;-50
2022/08/19 03:08:05;;;;;;;;;;;;;;;17.02;83.19;95042.44;5157184;27;930;-50
2022/08/19 03:10:32;;;;;;;;;;;;;;;17.09;82.94;95040.59;5157641;27;1052;-50
2022/08/19 03:12:58;;;;;;;;;;;;;;;17.06;83.28;95050.97;5157221;27;1048;-50
2022/08/19 03:15:24;;;;;;;;;;;;;;;16.96;83.14;95046.78;5157410;27;968;-49
2022/08/19 03:17:50;;;;;;;;;;;;;;;17.00;83.78;95052.63;5157221;27;1913;-50
2022/08/19 03:20:16;;;;;;;;;;;;;;;17.05;83.46;95046.59;5157188;27;1046;-50
2022/08/19 03:22:42;;;;;;;;;;;;;;;17.06;83.48;95048.28;5156943;27;969;-50
2022/08/19 03:25:08;;;;;;;;;;;;;;;16.86;84.08;95043.63;5157341;27;1047;-49
2022/08/19 03:27:34;;;;;;;;;;;;;;;16.83;83.81;95041.34;5157136;27;1032;-50
2022/08/19 03:30:01;;;;;;;;;;;;;;;16.94;83.25;95040.75;5157214;27;1058;-49
2022/08/19 03:32:27;;;;;;;;;;;;;;;16.95;83.68;95039.72;5156832;27;1027;-50
2022/08/19 03:34:53;;;;;;;;;;;;;;;16.86;83.48;95046.31;5156992;27;1039;-49
2022/08/19 03:37:19;;;;;;;;;;;;;;;16.74;84.02;95051.44;5157117;27;1032;-50
2022/08/19 03:39:45;;;;;;;;;;;;;;;16.83;83.75;95052.16;5156740;27;1913;-49
2022/08/19 03:42:12;;;;;;;;;;;;;;;16.91;83.59;95056.53;5138479;27;1043;-49
2022/08/19 03:44:38;;;;;;;;;;;;;;;16.90;83.22;95057.56;5144618;27;1149;-48
2022/08/19 03:47:05;;;;;;;;;;;;;;;16.69;83.72;95063.88;5135245;27;1048;-49
2022/08/19 03:49:32;;;;;;;;;;;;;;;16.53;85.37;95068.59;5135381;27;945;-50
2022/08/19 03:52:00;;;;;;;;;;;;;;;16.61;85.19;95064.91;5135865;27;1016;-50
2022/08/19 03:54:27;;;;;;;;;;;;;;;16.71;84.55;95075.31;5135449;27;1187;-50
2022/08/19 03:56:54;;;;;;;;;;;;;;;16.90;83.84;95080.03;5135999;27;953;-49
2022/08/19 03:59:24;;;;;;;;;;;;;;;17.03;82.88;95083.78;5135565;27;1986;-49
2022/08/19 04:01:51;;;;;;;;;;;;;;;17.04;83.55;95082.75;5135868;27;1059;-50
2022/08/19 04:04:17;;;;;;;;;;;;;;;16.89;83.31;95088.31;5135336;27;1044;-50
2022/08/19 04:06:43;;;;;;;;;;;;;;;16.76;84.19;95092.56;5135538;27;992;-50
2022/08/19 04:09:10;;;;;;;;;;;;;;;16.87;84.08;95093.09;5135230;27;1032;-50
2022/08/19 04:11:41;;;;;;;;;;;;;;;16.93;84.15;95095.78;5135437;27;1020;-49
2022/08/19 04:14:08;;;;;;;;;;;;;;;16.94;84.50;95094.78;5135244;27;992;-50
2022/08/19 04:16:34;;;;;;;;;;;;;;;17.07;83.91;95103.94;5135525;27;998;-50
2022/08/19 04:19:00;;;;;;;;;;;;;;;17.17;84.26;95102.53;5135098;27;1996;-50
2022/08/19 04:21:27;;;;;;;;;;;;;;;17.30;83.65;95104.44;5135148;27;1324;-50
2022/08/19 04:23:54;;;;;;;;;;;;;;;17.34;83.93;95112.97;5135285;27;969;-50
2022/08/19 04:26:22;;;;;;;;;;;;;;;17.43;84.02;95110.91;5135377;27;999;-50
2022/08/19 04:28:48;;;;;;;;;;;;;;;17.55;84.04;95115.50;5135277;27;941;-50
2022/08/19 04:31:16;;;;;;;;;;;;;;;17.65;83.81;95114.28;5135011;27;1075;-50
2022/08/19 04:33:42;;;;;;;;;;;;;;;17.52;83.44;95115.09;5135168;27;967;-50
2022/08/19 04:36:16;;;;;;;;;;;;;;;17.54;84.56;95115.72;5134860;27;1037;-50
2022/08/19 04:38:42;;;;;;;;;;;;;;;17.70;83.73;95107.22;5135001;27;2016;-49
2022/08/19 04:43:52;;;;;;;;;;;;;;;17.83;84.14;95117.22;5140398;27;1145;-48
2022/08/19 04:46:19;;;;;;;;;;;;;;;17.93;84.35;95100.63;5155511;27;1047;-49
2022/08/19 04:48:45;;;;;;;;;;;;;;;18.04;83.45;95105.41;5155337;27;1031;-49
2022/08/19 04:51:13;;;;;;;;;;;;;;;18.34;82.81;95113.91;5155532;27;969;-49
2022/08/19 04:53:39;;;;;;;;;;;;;;;18.63;81.46;95109.06;5154933;27;1269;-48
2022/08/19 04:56:08;;;;;;;;;;;;;;;18.72;83.42;95107.78;5155448;27;976;-48
2022/08/19 04:58:35;;;;;;;;;;;;;;;18.71;82.87;95105.28;5154896;27;1988;-49
2022/08/19 05:01:01;;;;;;;;;;;;;;;18.81;83.09;95107.56;5155306;27;964;-49
2022/08/19 05:03:27;;;;;;;;;;;;;;;19.02;82.56;95112.69;5155030;27;1047;-49
2022/08/19 05:05:53;;;;;;;;;;;;;;;19.25;82.20;95112.16;5155039;27;1020;-49
2022/08/19 05:08:21;;;;;;;;;;;;;;;19.38;81.23;95107.75;5155268;27;968;-49
2022/08/19 05:10:48;;;;;;;;;;;;;;;19.48;80.06;95108.09;5155133;27;991;-49
2022/08/19 05:13:16;;;;;;;;;;;;;;;19.53;79.74;95108.28;5155163;27;1027;-49
2022/08/19 05:15:42;;;;;;;;;;;;;;;19.66;80.40;95100.06;5154927;27;965;-49
2022/08/19 05:23:37;;;;;;;;;;;;;;;19.98;79.12;95110.94;5155135;27;967;-49
2022/08/19 05:26:04;;;;;;;;;;;;;;;20.07;76.57;95112.31;5154707;27;937;-49
2022/08/19 05:28:29;;;;;;;;;;;;;;;20.19;77.66;95111.59;5154873;27;956;-49
2022/08/19 05:30:56;;;;;;;;;;;;;;;20.31;74.53;95107.09;5154701;27;1039;-49
2022/08/19 05:33:23;;;;;;;;;;;;;;;20.38;75.80;95112.47;5154794;27;1032;-49
2022/08/19 05:35:50;;;;;;;;;;;;;;;20.53;73.92;95120.28;5154772;27;1011;-49
2022/08/19 05:38:17;;;;;;;;;;;;;;;20.60;72.04;95108.31;5154766;27;1914;-49
2022/08/19 05:40:46;;;;;;;;;;;;;;;20.66;73.49;95109.31;5136159;27;1031;-49
2022/08/19 05:43:15;;;;;;;;;;;;;;;20.65;71.29;95113.06;5154692;27;938;-49
2022/08/19 05:45:41;;;;;;;;;;;;;;;20.89;71.95;95107.78;5133881;28;1103;-49
2022/08/19 05:48:10;;;;;;;;;;;;;;;21.10;70.08;95112.78;5134133;28;1007;-49
2022/08/19 05:50:37;;;;;;;;;;;;;;;21.20;72.02;95109.50;5133972;28;999;-50
2022/08/19 05:53:03;;;;;;;;;;;;;;;21.29;71.31;95115.47;5133800;28;1230;-51
2022/08/19 05:55:30;;;;;;;;;;;;;;;21.36;72.51;95113.47;5133792;28;970;-52
2022/08/19 05:57:56;;;;;;;;;;;;;;;21.45;73.04;95114.84;5133847;28;1917;-50
2022/08/19 06:00:23;;;;;;;;;;;;;;;21.42;70.79;95107.16;5134023;28;1040;-50
2022/08/19 06:02:48;;;;;;;;;;;;;;;21.59;70.60;95104.66;5133889;28;985;-50
2022/08/19 06:05:14;;;;;;;;;;;;;;;21.68;73.52;95113.28;5133754;28;1000;-50
2022/08/19 06:07:40;;;;;;;;;;;;;;;21.70;70.75;95114.72;5133902;28;1075;-51
2022/08/19 06:10:08;;;;;;;;;;;;;;;21.77;72.00;95103.75;5133554;27;995;-50
2022/08/19 06:12:35;;;;;;;;;;;;;;;21.89;70.54;95110.03;5137271;27;1145;-51
2022/08/19 06:15:03;;;;;;;;;;;;;;;21.93;69.78;95105.81;5137811;27;948;-51
2022/08/19 06:17:30;;;;;;;;;;;;;;;22.10;71.11;95118.72;5137882;27;977;-50
2022/08/19 06:19:56;;;;;;;;;;;;;;;22.21;70.02;95116.03;5137643;27;1997;-50
2022/08/19 06:22:22;;;;;;;;;;;;;;;22.46;67.93;95114.19;5137540;27;972;-51
2022/08/19 06:24:52;;;;;;;;;;;;;;;22.59;67.03;95113.94;5137486;27;910;-51
2022/08/19 06:27:18;;;;;;;;;;;;;;;22.87;67.90;95118.66;5137559;27;970;-51
2022/08/19 06:29:46;;;;;;;;;;;;;;;23.05;66.35;95114.16;5137479;27;1114;-51
2022/08/19 06:32:14;;;;;;;;;;;;;;;23.14;66.29;95113.53;5137212;27;1071;-50
2022/08/19 06:34:40;;;;;;;;;;;;;;;23.24;65.89;95117.56;5137600;27;1014;-50
2022/08/19 06:37:06;;;;;;;;;;;;;;;23.49;66.20;95117.25;5137067;27;1020;-50
2022/08/19 06:39:34;;;;;;;;;;;;;;;23.83;65.95;95114.63;5137456;27;1914;-50
2022/08/19 06:42:02;;;;;;;;;;;;;;;23.97;64.89;95114.06;5137083;27;1028;-50
2022/08/19 06:44:34;;;;;;;;;;;;;;;24.08;62.67;95122.47;5148221;27;1177;-50
2022/08/19 06:47:02;;;;;;;;;;;;;;;24.27;63.73;95123.88;5157839;27;956;-51
2022/08/19 06:49:30;;;;;;;;;;;;;;;24.66;64.67;95123.16;5157945;27;1074;-51
2022/08/19 06:51:57;;;;;;;;;;;;;;;24.96;61.20;95124.69;5157575;27;1035;-50
2022/08/19 06:54:24;;;;;;;;;;;;;;;25.07;61.15;95121.00;5157659;27;1233;-51
2022/08/19 06:56:50;;;;;;;;;;;;;;;25.25;62.59;95109.78;5157529;27;1091;-50
2022/08/19 06:59:18;;;;;;;;;;;;;;;25.49;60.33;95113.06;5157460;27;1988;-49
2022/08/19 07:01:46;;;;;;;;;;;;;;;25.69;59.93;95117.16;5157471;27;1950;-50
2022/08/19 07:04:14;;;;;;;;;;;;;;;25.98;57.80;95112.28;5157529;27;1035;-50
2022/08/19 07:06:40;;;;;;;;;;;;;;;26.10;58.89;95110.22;5157325;27;975;-50
2022/08/19 07:09:06;;;;;;;;;;;;;;;26.20;58.07;95101.25;5157613;27;952;-49
2022/08/19 07:11:33;;;;;;;;;;;;;;;26.42;57.26;95105.81;5157193;27;1036;-50
2022/08/19 07:13:59;;;;;;;;;;;;;;;26.67;58.05;95106.03;5157419;27;999;-51
2022/08/19 07:16:27;;;;;;;;;;;;;;;26.96;55.79;95102.94;5157137;27;1021;-51
2022/08/19 07:18:54;;;;;;;;;;;;;;;27.11;54.26;95102.19;5157295;27;1906;-51
2022/08/19 07:21:24;;;;;;;;;;;;;;;27.26;54.23;95104.19;5156897;27;965;-51
2022/08/19 07:23:51;;;;;;;;;;;;;;;27.28;53.05;95107.53;5157311;27;1097;-51
2022/08/19 07:26:18;;;;;;;;;;;;;;;27.33;53.82;95098.47;5157042;27;1149;-51
2022/08/19 07:28:45;;;;;;;;;;;;;;;27.58;53.81;95109.53;5157257;27;1036;-51
2022/08/19 07:31:12;;;;;;;;;;;;;;;27.72;55.70;95107.13;5156933;27;973;-51
2022/08/19 07:33:39;;;;;;;;;;;;;;;27.81;53.33;95113.75;5156938;27;965;-51
2022/08/19 07:36:06;;;;;;;;;;;;;;;27.87;54.47;95105.50;5156857;27;1000;-51
2022/08/19 07:38:33;;;;;;;;;;;;;;;27.79;53.55;95112.34;5156871;27;1986;-51
2022/08/19 07:41:00;;;;;;;;;;;;;;;27.83;55.48;95107.94;5156826;27;1982;-52
2022/08/19 07:43:26;;;;;;;;;;;;;;;27.82;54.44;95106.31;5154668;27;1148;-52
2022/08/19 07:45:55;;;;;;;;;;;;;;;27.84;53.46;95104.13;5136057;27;962;-51
2022/08/19 07:48:25;;;;;;;;;;;;;;;27.71;55.80;95101.91;5135566;27;1850;-51
2022/08/19 07:50:54;;;;;;;;;;;;;;;27.87;54.67;95103.59;5135909;27;1888;-51
2022/08/19 07:53:21;;;;;;;;;;;;;;;27.89;54.94;95097.84;5135565;27;1234;-51
2022/08/19 07:55:47;;;;;;;;;;;;;;;27.98;55.70;95098.97;5135857;27;1011;-51
2022/08/19 07:58:16;;;;;;;;;;;;;;;27.89;53.74;95095.94;5135540;27;1990;-51
2022/08/19 08:00:43;;;;;;;;;;;;;;;27.75;55.16;95092.84;5135736;27;1067;-51
2022/08/19 08:03:10;;;;;;;;;;;;;;;27.70;54.47;95092.00;5135363;27;1027;-52
2022/08/19 08:10:57;;;;;;;;;;;;;;;27.94;54.98;95092.34;5135587;27;1857;-52
2022/08/19 08:13:23;;;;;;;;;;;;;;;28.08;54.17;95089.91;5135174;27;1048;-51
2022/08/19 08:15:49;;;;;;;;;;;;;;;28.06;52.99;95086.59;5135423;27;928;-52
2022/08/19 08:18:15;;;;;;;;;;;;;;;28.10;55.18;95085.81;5135300;27;1981;-52
2022/08/19 08:20:41;;;;;;;;;;;;;;;28.17;54.20;95080.00;5135545;27;1008;-51
2022/08/19 08:23:24;;;;;;;;;;;;;;;28.26;53.46;95080.31;5135182;27;1029;-51
2022/08/19 08:25:54;;;;;;;;;;;;;;;28.28;53.76;95083.59;5135283;27;1051;-51
2022/08/19 08:28:21;;;;;;;;;;;;;;;28.39;53.33;95075.06;5135385;27;992;-52
2022/08/19 08:30:47;;;;;;;;;;;;;;;28.42;53.21;95081.97;5135175;27;1947;-51
2022/08/19 08:33:16;;;;;;;;;;;;;;;28.50;53.39;95072.34;5134509;27;1082;-51
2022/08/19 08:35:42;;;;;;;;;;;;;;;28.55;53.01;95073.19;5134805;27;1083;-51
2022/08/19 08:38:08;;;;;;;;;;;;;;;28.66;54.19;95070.41;5134533;27;1903;-51
2022/08/19 08:40:49;;;;;;;;;;;;;;;28.77;53.20;95061.03;5134964;27;957;-51
2022/08/19 08:43:21;;;;;;;;;;;;;;;28.86;49.98;95064.06;5116628;27;1220;-51
2022/08/19 08:45:51;;;;;;;;;;;;;;;28.91;52.42;95075.88;5155564;27;992;-51
2022/08/19 08:48:37;;;;;;;;;;;;;;;28.94;52.85;95063.47;5155379;27;1016;-51
2022/08/19 08:51:07;;;;;;;;;;;;;;;29.02;50.23;95063.72;5155259;27;1985;-51
2022/08/19 08:53:34;;;;;;;;;;;;;;;29.20;51.34;95062.31;5155220;27;1095;-51
2022/08/19 08:56:01;;;;;;;;;;;;;;;29.28;50.38;95060.91;5155592;27;1026;-51
2022/08/19 08:58:31;;;;;;;;;;;;;;;29.37;50.34;95053.72;5155570;27;1910;-51
2022/08/19 09:00:57;;;;;;;;;;;;;;;29.51;49.95;95053.09;5155290;27;1948;-52
2022/08/19 09:03:28;;;;;;;;;;;;;;;29.54;49.23;95058.88;5155092;27;983;-51
2022/08/19 09:06:00;;;;;;;;;;;;;;;29.55;50.93;95056.94;5155246;27;1019;-51
2022/08/19 09:08:44;;;;;;;;;;;;;;;29.66;49.96;95050.25;5155143;27;967;-51
2022/08/19 09:11:15;;;;;;;;;;;;;;;29.72;49.79;95051.88;5155175;27;1039;-51
2022/08/19 09:13:51;;;;;;;;;;;;;;;29.77;49.10;95048.31;5155087;27;1066;-51
2022/08/19 09:16:20;;;;;;;;;;;;;;;29.87;48.63;95039.97;5154982;27;1031;-51
2022/08/19 09:18:52;;;;;;;;;;;;;;;30.00;50.51;95046.78;5154831;27;1905;-51
2022/08/19 09:21:20;;;;;;;;;;;;;;;30.04;49.15;95042.34;5155169;27;961;-51
2022/08/19 09:23:46;;;;;;;;;;;;;;;30.17;47.34;95038.09;5154945;27;1031;-52
2022/08/19 09:26:14;;;;;;;;;;;;;;;30.35;49.68;95033.84;5154969;27;993;-51
2022/08/19 09:28:43;;;;;;;;;;;;;;;30.30;46.40;95033.88;5154750;27;1045;-52
2022/08/19 09:31:10;;;;;;;;;;;;;;;30.35;49.53;95031.09;5155118;27;961;-55
2022/08/19 09:33:37;;;;;;;;;;;;;;;30.40;49.05;95036.56;5154740;27;1087;-51
2022/08/19 09:36:07;;;;;;;;;;;;;;;30.48;48.14;95024.91;5154943;27;980;-52
2022/08/19 09:38:33;;;;;;;;;;;;;;;30.45;45.35;95017.22;5154657;27;1913;-52
2022/08/19 09:41:04;;;;;;;;;;;;;;;30.58;47.02;95021.22;5154813;27;1865;-52
2022/08/19 09:43:31;;;;;;;;;;;;;;;30.68;47.56;95012.84;5152069;27;1207;-51
2022/08/19 09:45:57;;;;;;;;;;;;;;;30.78;47.88;95013.84;5135081;27;950;-51
2022/08/19 09:48:22;;;;;;;;;;;;;;;30.83;47.10;95011.88;5138355;27;1003;-52
2022/08/19 09:50:50;;;;;;;;;;;;;;;30.89;45.85;95010.69;5138306;27;992;-52
2022/08/19 09:53:16;;;;;;;;;;;;;;;30.89;45.66;95004.34;5138106;27;1119;-52
2022/08/19 09:55:43;;;;;;;;;;;;;;;30.90;46.47;94997.72;5138113;27;1015;-51
2022/08/19 09:58:10;;;;;;;;;;;;;;;30.94;43.99;95007.06;5137937;27;1990;-51
2022/08/19 10:00:37;;;;;;;;;;;;;;;30.95;45.43;95000.44;5137853;27;1083;-52
2022/08/19 10:03:03;;;;;;;;;;;;;;;30.97;44.53;94994.63;5137930;27;1942;-52
2022/08/19 10:08:14;;;;;;;;;;;;;;;30.90;46.62;94981.97;5137930;27;1083;-52
2022/08/19 10:10:43;;;;;;;;;;;;;;;30.93;41.71;94994.41;5137605;27;1003;-51
2022/08/19 10:13:09;;;;;;;;;;;;;;;31.01;42.53;94988.22;5137713;27;905;-52
2022/08/19 10:15:35;;;;;;;;;;;;;;;31.04;44.14;94989.59;5137783;27;969;-52
2022/08/19 10:18:01;;;;;;;;;;;;;;;31.12;43.08;94992.50;5137775;27;1913;-52
2022/08/19 10:20:29;;;;;;;;;;;;;;;31.05;40.92;94985.69;5137631;27;1040;-52
2022/08/19 10:22:55;;;;;;;;;;;;;;;31.08;42.98;94980.41;5137681;27;1059;-51
2022/08/19 10:25:21;;;;;;;;;;;;;;;31.11;43.14;94985.34;5137315;27;1982;-52
2022/08/19 10:27:47;;;;;;;;;;;;;;;31.10;41.03;94983.69;5137782;27;1019;-52
2022/08/19 10:30:13;;;;;;;;;;;;;;;31.22;42.45;94982.44;5137443;27;916;-52
2022/08/19 10:32:39;;;;;;;;;;;;;;;31.22;41.93;94968.63;5137639;27;984;-51
2022/08/19 10:35:07;;;;;;;;;;;;;;;31.19;38.62;94980.25;5137235;27;961;-51
2022/08/19 10:37:36;;;;;;;;;;;;;;;31.26;41.04;94967.72;5137356;27;1028;-52
2022/08/19 10:40:03;;;;;;;;;;;;;;;31.33;40.54;94970.16;5136954;27;1978;-52
2022/08/19 10:42:31;;;;;;;;;;;;;;;31.39;41.54;94968.13;5137521;27;1032;-51
2022/08/19 10:44:57;;;;;;;;;;;;;;;31.33;42.13;94972.91;5151996;27;1173;-51
2022/08/19 10:47:23;;;;;;;;;;;;;;;31.32;40.49;94962.97;5157891;27;1031;-51
2022/08/19 10:52:34;;;;;;;;;;;;;;;31.35;39.90;94962.38;5157650;27;1250;-52
2022/08/19 10:57:45;;;;;;;;;;;;;;;31.28;38.76;94951.72;5157171;27;1028;-52
2022/08/19 11:00:13;;;;;;;;;;;;;;;31.30;39.24;94951.41;5157473;27;2001;-51
2022/08/19 11:02:39;;;;;;;;;;;;;;;31.29;41.98;94944.25;5157592;27;1031;-52
2022/08/19 11:05:06;;;;;;;;;;;;;;;31.22;39.82;94954.81;5157273;27;1048;-51
2022/08/19 11:07:32;;;;;;;;;;;;;;;31.23;38.97;94950.97;5157534;27;1004;-51
2022/08/19 11:09:58;;;;;;;;;;;;;;;31.28;37.81;94951.72;5157459;27;1001;-52
2022/08/19 11:12:24;;;;;;;;;;;;;;;31.40;38.00;94947.66;5157623;27;1042;-51
2022/08/19 11:14:50;;;;;;;;;;;;;;;31.42;38.97;94940.75;5157342;27;1054;-51
2022/08/19 11:17:16;;;;;;;;;;;;;;;31.41;39.31;94939.09;5157184;27;1007;-52
2022/08/19 11:19:42;;;;;;;;;;;;;;;31.53;39.07;94935.94;5138786;27;1909;-51
2022/08/19 11:22:09;;;;;;;;;;;;;;;31.57;39.62;94936.97;5157501;27;999;-51
2022/08/19 11:24:35;;;;;;;;;;;;;;;31.69;37.57;94937.31;5157370;27;1003;-51
2022/08/19 11:27:06;;;;;;;;;;;;;;;31.73;39.55;94939.50;5157116;27;968;-52
2022/08/19 11:29:34;;;;;;;;;;;;;;;31.70;39.95;94925.16;5157198;27;980;-51
2022/08/19 11:32:03;;;;;;;;;;;;;;;31.71;39.31;94925.97;5156944;27;1032;-51
2022/08/19 11:34:29;;;;;;;;;;;;;;;31.77;37.26;94932.22;5157061;27;1032;-53
2022/08/19 11:36:59;;;;;;;;;;;;;;;31.84;37.35;94913.34;5156954;27;1011;-52
2022/08/19 11:39:26;;;;;;;;;;;;;;;31.87;38.07;94918.25;5156932;27;1913;-51
2022/08/19 11:41:52;;;;;;;;;;;;;;;31.89;36.88;94916.84;5156868;27;999;-52
2022/08/19 11:44:18;;;;;;;;;;;;;;;32.01;37.77;94910.81;5147402;27;1200;-52
2022/08/19 11:46:46;;;;;;;;;;;;;;;32.01;36.35;94902.53;5135852;27;1060;-51
2022/08/19 11:49:13;;;;;;;;;;;;;;;31.92;37.05;94909.88;5135906;27;1863;-51
2022/08/19 11:51:41;;;;;;;;;;;;;;;31.92;36.86;94901.56;5136012;27;1051;-51
2022/08/19 11:54:07;;;;;;;;;;;;;;;31.89;39.27;94893.88;5135659;27;1954;-52
2022/08/19 11:56:34;;;;;;;;;;;;;;;31.91;37.42;94895.22;5135660;27;1087;-52
2022/08/19 11:59:00;;;;;;;;;;;;;;;31.96;36.25;94890.72;5135804;27;1914;-52
2022/08/19 12:01:26;;;;;;;;;;;;;;;32.00;37.98;94880.72;5135416;27;987;-52
2022/08/19 12:03:54;;;;;;;;;;;;;;;31.94;39.36;94885.50;5135929;27;952;-52
2022/08/19 12:06:28;;;;;;;;;;;;;;;31.95;38.72;94872.50;5135592;27;1044;-52
2022/08/19 12:08:55;;;;;;;;;;;;;;;31.91;37.93;94877.84;5134650;27;1053;-51
2022/08/19 12:11:21;;;;;;;;;;;;;;;31.89;36.34;94878.13;5135406;27;956;-51
2022/08/19 12:13:47;;;;;;;;;;;;;;;31.90;38.25;94878.94;5135383;27;1111;-52
2022/08/19 12:16:15;;;;;;;;;;;;;;;31.94;36.23;94884.69;5135220;27;1904;-52
2022/08/19 12:18:45;;;;;;;;;;;;;;;31.98;35.56;94872.72;5135530;27;1992;-50
2022/08/19 12:21:13;;;;;;;;;;;;;;;32.01;34.94;94874.88;5135104;27;1067;-50
2022/08/19 12:23:44;;;;;;;;;;;;;;;32.06;36.23;94862.91;5135335;27;1071;-51
2022/08/19 12:26:10;;;;;;;;;;;;;;;32.13;36.70;94865.31;5135072;27;940;-50
2022/08/19 12:28:36;;;;;;;;;;;;;;;32.13;36.06;94862.53;5135110;27;1032;-51
2022/08/19 12:31:02;;;;;;;;;;;;;;;32.12;37.72;94856.19;5135201;27;1052;-51
2022/08/19 12:33:28;;;;;;;;;;;;;;;32.16;38.09;94864.72;5135348;27;1035;-52
2022/08/19 12:35:59;;;;;;;;;;;;;;;32.12;39.71;94852.59;5135063;27;960;-52
2022/08/19 12:38:25;;;;;;;;;;;;;;;32.05;39.15;94851.06;5135053;27;1914;-51
2022/08/19 12:40:51;;;;;;;;;;;;;;;32.02;39.79;94843.34;5134818;27;1099;-51
2022/08/19 12:43:19;;;;;;;;;;;;;;;31.96;36.74;94850.06;5135350;27;1161;-50
2022/08/19 12:45:45;;;;;;;;;;;;;;;31.97;37.55;94843.44;5155500;27;1047;-50
2022/08/19 12:48:11;;;;;;;;;;;;;;;32.01;37.58;94841.69;5155579;27;1000;-50
2022/08/19 12:50:41;;;;;;;;;;;;;;;32.04;37.54;94840.28;5155667;27;1003;-50
2022/08/19 12:53:07;;;;;;;;;;;;;;;32.06;36.17;94838.88;5155268;27;1340;-51
2022/08/19 12:55:33;;;;;;;;;;;;;;;32.10;34.90;94839.09;5155387;27;1019;-51
2022/08/19 12:58:01;;;;;;;;;;;;;;;32.15;35.37;94833.44;5155127;27;1917;-51
2022/08/19 13:00:27;;;;;;;;;;;;;;;32.17;36.76;94828.44;5155500;27;1055;-51
2022/08/19 13:02:53;;;;;;;;;;;;;;;32.12;37.64;94822.19;5155317;27;965;-50
2022/08/19 13:05:22;;;;;;;;;;;;;;;32.06;37.96;94826.97;5155378;27;957;-50
2022/08/19 13:07:49;;;;;;;;;;;;;;;32.05;35.92;94822.59;5155228;27;972;-51
2022/08/19 13:10:17;;;;;;;;;;;;;;;32.04;37.71;94807.97;5155034;27;1020;-50
2022/08/19 13:12:44;;;;;;;;;;;;;;;32.04;37.17;94810.72;5155297;27;981;-51
2022/08/19 13:15:10;;;;;;;;;;;;;;;32.05;36.53;94809.59;5155247;27;973;-50
2022/08/19 13:17:37;;;;;;;;;;;;;;;32.08;38.16;94810.91;5155111;27;979;-51
2022/08/19 13:20:03;;;;;;;;;;;;;;;32.02;37.22;94810.19;5154854;27;1989;-51
2022/08/19 13:22:29;;;;;;;;;;;;;;;32.08;35.12;94806.22;5154970;27;1134;-50